Nearby METAR Reports

 

KFWA - Fort Wayne, Indiana, USA
Distance from station: ENE 19mi, 31km
Updated: Sun, 25-Feb-2018 1:54pm EST
Overcast
Overcast
 Wind from WSW
Wind: WSW 24 mph , 39 km/h, Gust: 33 mph , 54 km/h
Temperature: 41°F , 5°C
Wind Chill: 31°F , -1°C
Dew Point: 30°F , -1°C
Humidity: 66%
Barometer: 29.99 inHg , 1015.6 hPa
Clouds: Overcast
Visibility: 10 miles , 16 km
Cloud details: Overcast 3200 ft
2018/02/25 18:54 KFWA 251854Z 24021G29KT 10SM OVC032 05/M01 A2999 RMK AO2 PK WND 25029/1849 SLP158 T00501006 $
KASW - Warsaw Muni, Indiana, USA
Distance from station: NNW 28mi, 45km
Updated: Sun, 25-Feb-2018 2:35pm EST
Overcast
Overcast
 Wind from SSE
Wind: SSE 20 mph , 31 km/h, Gust: 29 mph , 46 km/h
Temperature: 39°F , 4°C
Wind Chill: 29°F , -2°C
Dew Point: 28°F , -2°C
Humidity: 65%
Barometer: 29.97 inHg , 1014.9 hPa
Clouds: Overcast
Visibility: 10 miles , 16 km
Cloud details: Overcast 3100 ft
2018/02/25 19:35 KASW 251935Z AUTO 16017G25KT 087V177 10SM OVC031 04/M02 A2997 RMK AO2
 
KMZZ - Marion Muni, Indiana, USA
Distance from station: SSW 32mi, 51km
Updated: Sun, 25-Feb-2018 2:35pm EST
Haze, Overcast
Haze, Overcast
 Wind from W
Wind: W 18 mph , 30 km/h
Temperature: 41°F , 5°C
Wind Chill: 32°F , 0°C
Dew Point: 32°F , 0°C
Humidity: 70%
Barometer: 30.02 inHg , 1016.6 hPa
Summary: Haze
Clouds: Overcast
Visibility: 3 miles , 5 km
Cloud details: Overcast 2700 ft
2018/02/25 19:35 KMZZ 251935Z AUTO 27016KT 3SM HZ OVC027 05/00 A3002 RMK AO2 T00480002
KRCR - Rochester, Indiana, USA
Distance from station: WNW 35mi, 56km
Updated: Sun, 25-Feb-2018 2:35pm EST
Mostly cloudy
Mostly cloudy
 Wind from SW
Wind: SW 18 mph , 30 km/h, Gust: 26 mph , 43 km/h
Temperature: 43°F , 6°C
Wind Chill: 35°F , 2°C
Dew Point: 30°F , -1°C
Humidity: 61%
Barometer: 30.00 inHg , 1015.9 hPa
Clouds: Mostly cloudy
Visibility: 10 miles , 16 km
Cloud details: Mostly cloudy 3000 ft
Mostly cloudy 3600 ft
2018/02/25 19:35 KRCR 251935Z AUTO 23016G23KT 10SM BKN030 BKN036 06/M01 A3000 RMK AO2
 
KGWB - Auburn Dekalb C, Indiana, USA
Distance from station: NE 36mi, 58km
Updated: Sun, 25-Feb-2018 2:35pm EST
Mostly cloudy
Mostly cloudy
 Wind from WSW
Wind: WSW 16 mph , 26 km/h, Gust: 21 mph , 33 km/h
Temperature: 39°F , 4°C
Wind Chill: 30°F , -1°C
Dew Point: 30°F , -1°C
Humidity: 70%
Barometer: 29.97 inHg , 1014.9 hPa
Clouds: Mostly cloudy
Visibility: 10 miles , 16 km
Cloud details: Mostly cloudy 2900 ft
Mostly cloudy 3400 ft
2018/02/25 19:35 KGWB 251935Z AUTO 24014G18KT 10SM BKN029 BKN034 04/M01 A2997 RMK AO2
KGUS - Grissom Afb/Peru, Indiana, USA
Distance from station: WSW 38mi, 60km
Updated: Sun, 25-Feb-2018 1:56pm EST
Overcast
Overcast
 Wind from W
Wind: W 22 mph , 35 km/h, Gust: 31 mph , 50 km/h
Temperature: 43°F , 6°C
Wind Chill: 34°F , 1°C
Dew Point: 32°F , 0°C
Humidity: 66%
Barometer: 30.00 inHg , 1015.9 hPa
Clouds: Overcast
Visibility: 10 miles , 16 km
Cloud details: Overcast 3100 ft
2018/02/25 18:56 KGUS 251856Z AUTO 26019G27KT 10SM OVC031 06/00 A3000 RMK AO2 PK WND 24028/28 SLP164 T00551001 RVRNO $